Glendale, Colorado
Current Conditions -  °F | °C
As of 2:53 PM on Friday 31 Oct 2014 (Local Time) from KAPA Reporting Station
Broken Clouds Broken Clouds  
Wind Chill: 57°   Ceiling: 22000
Heat Index: 57°   Visibility: 10mi
Dew Point: 29°   Wind: 9mph
Humidity: 34%   Direction: 120°ESE
Pressure: 30.14"   Gusts: NA
Location:  39.6814°N, 104.925°W
Report Text: KAPA 312053Z 12008KT 10SM FEW150 BKN220 14/M02 A3014 RMK AO2 SLP185 T01391017 56031
Loading
Personal Weather Stations






























Interactive Weather Map
Tropical Storm Tracking
New forecast layout! Learn more

10-Day Weather Forecast

Advertisements
Track Severe Weather on mobile